sensor_id;sensor_type;location;lat;lon;timestamp;pressure;altitude;pressure_sealevel;temperature;humidity
6393;BME280;3229;42.674;23.282;2022-09-13T00:00:55;94490.44;;;17.20;72.79
6393;BME280;3229;42.674;23.282;2022-09-13T00:03:23;94490.44;;;17.20;73.10
6393;BME280;3229;42.674;23.282;2022-09-13T00:05:50;94465.28;;;17.07;72.95
6393;BME280;3229;42.674;23.282;2022-09-13T00:08:19;94438.25;;;16.88;72.88
6393;BME280;3229;42.674;23.282;2022-09-13T00:10:46;94486.56;;;17.30;73.01
6393;BME280;3229;42.674;23.282;2022-09-13T00:13:14;94450.66;;;17.14;72.62
6393;BME280;3229;42.674;23.282;2022-09-13T00:15:42;94480.03;;;17.35;72.93
6393;BME280;3229;42.674;23.282;2022-09-13T00:18:09;94476.66;;;17.34;73.14
6393;BME280;3229;42.674;23.282;2022-09-13T00:20:36;94476.47;;;17.36;73.28
6393;BME280;3229;42.674;23.282;2022-09-13T00:23:03;94441.09;;;17.15;73.07
6393;BME280;3229;42.674;23.282;2022-09-13T00:25:31;94434.94;;;17.16;72.89
6393;BME280;3229;42.674;23.282;2022-09-13T00:27:58;94450.63;;;17.36;72.76
6393;BME280;3229;42.674;23.282;2022-09-13T00:30:25;94396.00;;;16.96;72.85
6393;BME280;3229;42.674;23.282;2022-09-13T00:32:52;94470.91;;;17.53;72.97
6393;BME280;3229;42.674;23.282;2022-09-13T00:35:19;94467.50;;;17.53;72.72
6393;BME280;3229;42.674;23.282;2022-09-13T00:37:46;94469.66;;;17.49;72.92
6393;BME280;3229;42.674;23.282;2022-09-13T00:40:13;94456.91;;;17.48;73.25
6393;BME280;3229;42.674;23.282;2022-09-13T00:42:41;94458.31;;;17.50;73.02
6393;BME280;3229;42.674;23.282;2022-09-13T00:45:14;94453.59;;;17.54;73.00
6393;BME280;3229;42.674;23.282;2022-09-13T00:47:44;94458.00;;;17.60;72.67
6393;BME280;3229;42.674;23.282;2022-09-13T00:50:16;94273.09;;;16.44;72.67
6393;BME280;3229;42.674;23.282;2022-09-13T00:52:47;94425.22;;;17.39;72.69
6393;BME280;3229;42.674;23.282;2022-09-13T00:55:19;94351.84;;;16.91;72.53
6393;BME280;3229;42.674;23.282;2022-09-13T00:57:48;94398.44;;;17.25;72.54
6393;BME280;3229;42.674;23.282;2022-09-13T01:00:17;94453.69;;;17.67;72.37
6393;BME280;3229;42.674;23.282;2022-09-13T01:02:47;94453.69;;;17.67;72.45
6393;BME280;3229;42.674;23.282;2022-09-13T01:05:17;94454.50;;;17.68;72.74
6393;BME280;3229;42.674;23.282;2022-09-13T01:07:46;94453.94;;;17.72;72.19
6393;BME280;3229;42.674;23.282;2022-09-13T01:10:13;94456.09;;;17.69;72.37
6393;BME280;3229;42.674;23.282;2022-09-13T01:12:43;94457.50;;;17.71;72.26
6393;BME280;3229;42.674;23.282;2022-09-13T01:15:15;94450.00;;;17.76;72.13
6393;BME280;3229;42.674;23.282;2022-09-13T01:17:42;94458.00;;;17.82;71.67
6393;BME280;3229;42.674;23.282;2022-09-13T01:20:10;94453.75;;;17.74;72.07
6393;BME280;3229;42.674;23.282;2022-09-13T01:26:16;94345.50;;;17.15;71.79
6393;BME280;3229;42.674;23.282;2022-09-13T01:29:22;94364.63;;;17.20;72.37
6393;BME280;3229;42.674;23.282;2022-09-13T01:31:58;94411.16;;;17.48;72.29
6393;BME280;3229;42.674;23.282;2022-09-13T01:34:40;94442.00;;;17.71;72.24
6393;BME280;3229;42.674;23.282;2022-09-13T01:37:29;94444.22;;;17.74;72.27
6393;BME280;3229;42.674;23.282;2022-09-13T01:40:08;94442.97;;;17.70;72.35
6393;BME280;3229;42.674;23.282;2022-09-13T01:42:47;94445.03;;;17.75;72.15
6393;BME280;3229;42.674;23.282;2022-09-13T01:45:23;94366.72;;;17.32;72.09
6393;BME280;3229;42.674;23.282;2022-09-13T01:47:58;94436.81;;;17.71;72.42
6393;BME280;3229;42.674;23.282;2022-09-13T01:50:35;94385.41;;;17.34;72.51
6393;BME280;3229;42.674;23.282;2022-09-13T01:53:06;94257.31;;;16.53;72.46
6393;BME280;3229;42.674;23.282;2022-09-13T01:55:39;94398.00;;;17.43;72.56
6393;BME280;3229;42.674;23.282;2022-09-13T01:58:18;94446.09;;;17.66;72.74
6393;BME280;3229;42.674;23.282;2022-09-13T02:00:53;94338.00;;;16.98;72.73
6393;BME280;3229;42.674;23.282;2022-09-13T02:03:26;94299.47;;;16.75;72.43
6393;BME280;3229;42.674;23.282;2022-09-13T02:05:58;94433.94;;;17.60;73.17
6393;BME280;3229;42.674;23.282;2022-09-13T02:08:36;94384.53;;;17.26;72.94
6393;BME280;3229;42.674;23.282;2022-09-13T02:11:08;94321.03;;;16.89;72.92
6393;BME280;3229;42.674;23.282;2022-09-13T02:13:39;94378.78;;;17.24;73.49
6393;BME280;3229;42.674;23.282;2022-09-13T02:16:10;94436.94;;;17.63;73.10
6393;BME280;3229;42.674;23.282;2022-09-13T02:18:44;94336.56;;;16.96;73.31
6393;BME280;3229;42.674;23.282;2022-09-13T02:21:16;94385.72;;;17.24;73.11
6393;BME280;3229;42.674;23.282;2022-09-13T02:23:49;94434.06;;;17.51;73.19
6393;BME280;3229;42.674;23.282;2022-09-13T02:26:18;94280.25;;;16.42;73.58
6393;BME280;3229;42.674;23.282;2022-09-13T02:28:50;94433.41;;;17.43;73.81
6393;BME280;3229;42.674;23.282;2022-09-13T02:31:21;94430.56;;;17.38;73.93
6393;BME280;3229;42.674;23.282;2022-09-13T02:33:56;94404.28;;;17.13;74.29
6393;BME280;3229;42.674;23.282;2022-09-13T02:36:30;94439.25;;;17.30;74.02
6393;BME280;3229;42.674;23.282;2022-09-13T02:39:00;94441.41;;;17.26;74.21
6393;BME280;3229;42.674;23.282;2022-09-13T02:41:32;94435.19;;;17.21;74.58
6393;BME280;3229;42.674;23.282;2022-09-13T02:44:04;94399.91;;;16.92;74.68
6393;BME280;3229;42.674;23.282;2022-09-13T02:46:59;94436.28;;;17.12;74.84
6393;BME280;3229;42.674;23.282;2022-09-13T02:49:39;94387.75;;;16.86;74.57
6393;BME280;3229;42.674;23.282;2022-09-13T02:52:11;94433.91;;;17.10;74.69
6393;BME280;3229;42.674;23.282;2022-09-13T02:54:49;94432.28;;;17.09;74.78
6393;BME280;3229;42.674;23.282;2022-09-13T02:57:26;94440.44;;;17.06;74.98
6393;BME280;3229;42.674;23.282;2022-09-13T02:59:55;94430.88;;;17.07;74.66
6393;BME280;3229;42.674;23.282;2022-09-13T03:02:26;94376.63;;;16.70;74.98
6393;BME280;3229;42.674;23.282;2022-09-13T03:04:57;94412.34;;;16.82;75.22
6393;BME280;3229;42.674;23.282;2022-09-13T03:07:25;94436.72;;;16.94;75.03
6393;BME280;3229;42.674;23.282;2022-09-13T03:09:54;94380.69;;;16.58;75.07
6393;BME280;3229;42.674;23.282;2022-09-13T03:12:35;94433.09;;;16.88;75.41
6393;BME280;3229;42.674;23.282;2022-09-13T03:15:12;94284.09;;;15.95;75.54
6393;BME280;3229;42.674;23.282;2022-09-13T03:17:47;94167.97;;;15.22;75.22
6393;BME280;3229;42.674;23.282;2022-09-13T03:20:24;94426.06;;;16.82;75.65
6393;BME280;3229;42.674;23.282;2022-09-13T03:23:31;94425.25;;;16.82;75.67
6393;BME280;3229;42.674;23.282;2022-09-13T03:26:13;94425.44;;;16.80;75.60
6393;BME280;3229;42.674;23.282;2022-09-13T03:28:47;94422.22;;;16.78;75.38
6393;BME280;3229;42.674;23.282;2022-09-13T03:31:26;94426.59;;;16.77;75.61
6393;BME280;3229;42.674;23.282;2022-09-13T03:33:57;94436.50;;;16.74;75.84
6393;BME280;3229;42.674;23.282;2022-09-13T03:36:33;94432.63;;;16.70;76.01
6393;BME280;3229;42.674;23.282;2022-09-13T03:39:08;94297.63;;;15.82;75.78
6393;BME280;3229;42.674;23.282;2022-09-13T03:41:41;94255.75;;;15.50;75.73
6393;BME280;3229;42.674;23.282;2022-09-13T03:44:11;94431.41;;;16.66;75.88
6393;BME280;3229;42.674;23.282;2022-09-13T03:46:42;94337.19;;;16.04;76.04
6393;BME280;3229;42.674;23.282;2022-09-13T03:49:14;94438.69;;;16.62;76.03
6393;BME280;3229;42.674;23.282;2022-09-13T03:51:45;94439.88;;;16.60;76.36
6393;BME280;3229;42.674;23.282;2022-09-13T03:54:16;94424.41;;;16.45;75.97
6393;BME280;3229;42.674;23.282;2022-09-13T03:56:45;94446.56;;;16.54;76.14
6393;BME280;3229;42.674;23.282;2022-09-13T03:59:33;94375.97;;;16.11;76.40
6393;BME280;3229;42.674;23.282;2022-09-13T04:02:04;94433.75;;;16.46;76.72
6393;BME280;3229;42.674;23.282;2022-09-13T04:04:32;94369.66;;;15.98;76.69
6393;BME280;3229;42.674;23.282;2022-09-13T04:07:00;94407.63;;;16.19;77.09
6393;BME280;3229;42.674;23.282;2022-09-13T04:09:29;94439.03;;;16.38;76.62
6393;BME280;3229;42.674;23.282;2022-09-13T04:11:55;94445.16;;;16.37;76.31
6393;BME280;3229;42.674;23.282;2022-09-13T04:14:22;94440.34;;;16.34;76.25
6393;BME280;3229;42.674;23.282;2022-09-13T04:16:51;94435.38;;;16.32;76.29
6393;BME280;3229;42.674;23.282;2022-09-13T04:19:20;94434.75;;;16.30;76.39
6393;BME280;3229;42.674;23.282;2022-09-13T04:21:47;94326.47;;;15.48;76.03
6393;BME280;3229;42.674;23.282;2022-09-13T04:24:16;94351.84;;;15.74;76.06
6393;BME280;3229;42.674;23.282;2022-09-13T04:26:43;94452.19;;;16.28;76.49
6393;BME280;3229;42.674;23.282;2022-09-13T04:29:10;94442.84;;;16.27;76.51
6393;BME280;3229;42.674;23.282;2022-09-13T04:31:37;94446.41;;;16.26;76.66
6393;BME280;3229;42.674;23.282;2022-09-13T04:34:04;94439.53;;;16.18;76.65
6393;BME280;3229;42.674;23.282;2022-09-13T04:36:31;94447.38;;;16.25;76.83
6393;BME280;3229;42.674;23.282;2022-09-13T04:38:58;94454.13;;;16.26;76.75
6393;BME280;3229;42.674;23.282;2022-09-13T04:41:27;94456.91;;;16.24;76.89
6393;BME280;3229;42.674;23.282;2022-09-13T04:43:54;94463.13;;;16.30;76.52
6393;BME280;3229;42.674;23.282;2022-09-13T04:46:21;94427.91;;;16.08;76.69
6393;BME280;3229;42.674;23.282;2022-09-13T04:48:49;94436.69;;;16.13;76.35
6393;BME280;3229;42.674;23.282;2022-09-13T04:51:16;94465.38;;;16.33;76.70
6393;BME280;3229;42.674;23.282;2022-09-13T04:53:43;94396.50;;;15.89;76.47
6393;BME280;3229;42.674;23.282;2022-09-13T04:56:11;94316.97;;;15.48;76.80
6393;BME280;3229;42.674;23.282;2022-09-13T04:58:41;94477.09;;;16.50;76.24
6393;BME280;3229;42.674;23.282;2022-09-13T05:01:09;94472.38;;;16.54;76.38
6393;BME280;3229;42.674;23.282;2022-09-13T05:03:36;94397.41;;;16.11;76.15
6393;BME280;3229;42.674;23.282;2022-09-13T05:06:05;94435.63;;;16.52;76.66
6393;BME280;3229;42.674;23.282;2022-09-13T05:08:33;94472.97;;;16.86;76.27
6393;BME280;3229;42.674;23.282;2022-09-13T05:11:00;94465.75;;;16.96;75.20
6393;BME280;3229;42.674;23.282;2022-09-13T05:13:27;94471.38;;;17.21;74.85
6393;BME280;3229;42.674;23.282;2022-09-13T05:15:56;94464.06;;;17.46;73.34
6393;BME280;3229;42.674;23.282;2022-09-13T05:18:24;94417.22;;;17.34;72.92
6393;BME280;3229;42.674;23.282;2022-09-13T05:20:53;94469.50;;;18.00;72.20
6393;BME280;3229;42.674;23.282;2022-09-13T05:23:20;94474.63;;;18.28;70.83
6393;BME280;3229;42.674;23.282;2022-09-13T05:25:52;94470.97;;;18.51;69.53
6393;BME280;3229;42.674;23.282;2022-09-13T05:28:19;94410.50;;;18.24;67.57
6393;BME280;3229;42.674;23.282;2022-09-13T05:30:53;94475.72;;;18.82;66.69
6393;BME280;3229;42.674;23.282;2022-09-13T05:33:22;94386.69;;;18.42;66.93
6393;BME280;3229;42.674;23.282;2022-09-13T05:35:49;94419.06;;;18.66;65.34
6393;BME280;3229;42.674;23.282;2022-09-13T05:38:17;94473.41;;;19.07;65.53
6393;BME280;3229;42.674;23.282;2022-09-13T05:40:44;94451.63;;;18.88;64.29
6393;BME280;3229;42.674;23.282;2022-09-13T05:43:11;94483.63;;;19.22;64.56
6393;BME280;3229;42.674;23.282;2022-09-13T05:45:39;94483.41;;;19.17;64.52
6393;BME280;3229;42.674;23.282;2022-09-13T05:48:06;94383.13;;;18.56;64.67
6393;BME280;3229;42.674;23.282;2022-09-13T05:50:37;94486.84;;;19.30;64.66
6393;BME280;3229;42.674;23.282;2022-09-13T05:53:04;94477.28;;;19.38;64.91
6393;BME280;3229;42.674;23.282;2022-09-13T05:55:32;94480.69;;;19.45;64.47
6393;BME280;3229;42.674;23.282;2022-09-13T05:58:00;94486.28;;;19.48;63.83
6393;BME280;3229;42.674;23.282;2022-09-13T06:00:27;94484.88;;;19.52;63.23
6393;BME280;3229;42.674;23.282;2022-09-13T06:02:56;94463.94;;;19.47;63.59
6393;BME280;3229;42.674;23.282;2022-09-13T06:05:23;94476.16;;;19.73;63.74
6393;BME280;3229;42.674;23.282;2022-09-13T06:07:51;94480.94;;;19.76;62.67
6393;BME280;3229;42.674;23.282;2022-09-13T06:10:18;94456.97;;;19.68;62.72
6393;BME280;3229;42.674;23.282;2022-09-13T06:12:45;94478.53;;;20.08;62.23
6393;BME280;3229;42.674;23.282;2022-09-13T06:15:13;94483.50;;;20.29;61.98
6393;BME280;3229;42.674;23.282;2022-09-13T06:17:40;94437.38;;;20.18;62.04
6393;BME280;3229;42.674;23.282;2022-09-13T06:20:07;94480.44;;;20.66;60.77
6393;BME280;3229;42.674;23.282;2022-09-13T06:22:35;94440.50;;;20.40;59.99
6393;BME280;3229;42.674;23.282;2022-09-13T06:25:04;94487.00;;;20.82;59.25
6393;BME280;3229;42.674;23.282;2022-09-13T06:27:31;94428.31;;;20.54;59.28
6393;BME280;3229;42.674;23.282;2022-09-13T06:29:58;94452.81;;;20.78;58.94
6393;BME280;3229;42.674;23.282;2022-09-13T06:32:25;94488.63;;;21.14;58.47
6393;BME280;3229;42.674;23.282;2022-09-13T06:34:51;94490.16;;;21.28;58.77
6393;BME280;3229;42.674;23.282;2022-09-13T06:37:18;94498.09;;;21.47;57.41
6393;BME280;3229;42.674;23.282;2022-09-13T06:39:46;94412.50;;;21.00;57.88
6393;BME280;3229;42.674;23.282;2022-09-13T06:42:15;94503.78;;;21.62;55.78
6393;BME280;3229;42.674;23.282;2022-09-13T06:44:42;94502.75;;;21.70;56.91
6393;BME280;3229;42.674;23.282;2022-09-13T06:47:10;94500.75;;;21.72;56.47
6393;BME280;3229;42.674;23.282;2022-09-13T06:49:37;94510.94;;;21.73;56.54
6393;BME280;3229;42.674;23.282;2022-09-13T06:52:04;94461.34;;;21.30;55.82
6393;BME280;3229;42.674;23.282;2022-09-13T06:54:31;94511.13;;;21.47;56.08
6393;BME280;3229;42.674;23.282;2022-09-13T06:56:58;94482.34;;;21.28;56.81
6393;BME280;3229;42.674;23.282;2022-09-13T06:59:28;94515.63;;;21.58;57.07
6393;BME280;3229;42.674;23.282;2022-09-13T07:01:55;94485.66;;;21.49;56.93
6393;BME280;3229;42.674;23.282;2022-09-13T07:04:22;94408.50;;;20.98;55.48
6393;BME280;3229;42.674;23.282;2022-09-13T07:06:49;94508.09;;;21.82;56.94
6393;BME280;3229;42.674;23.282;2022-09-13T07:09:19;94529.81;;;21.94;57.35
6393;BME280;3229;42.674;23.282;2022-09-13T07:11:46;94535.31;;;22.11;58.12
6393;BME280;3229;42.674;23.282;2022-09-13T07:14:15;94514.66;;;22.16;57.73
6393;BME280;3229;42.674;23.282;2022-09-13T07:16:44;94505.81;;;22.17;54.55
6393;BME280;3229;42.674;23.282;2022-09-13T07:19:12;94527.03;;;22.45;54.33
6393;BME280;3229;42.674;23.282;2022-09-13T07:21:40;94532.31;;;22.57;55.61
6393;BME280;3229;42.674;23.282;2022-09-13T07:24:07;94516.66;;;22.57;55.16
6393;BME280;3229;42.674;23.282;2022-09-13T07:26:34;94540.31;;;22.81;52.23
6393;BME280;3229;42.674;23.282;2022-09-13T07:29:03;94443.03;;;22.25;53.60
6393;BME280;3229;42.674;23.282;2022-09-13T07:31:31;94538.09;;;23.02;54.06
6393;BME280;3229;42.674;23.282;2022-09-13T07:34:00;94541.75;;;23.13;50.88
6393;BME280;3229;42.674;23.282;2022-09-13T07:36:29;94535.09;;;23.17;49.94
6393;BME280;3229;42.674;23.282;2022-09-13T07:38:57;94546.69;;;23.21;50.34
6393;BME280;3229;42.674;23.282;2022-09-13T07:41:25;94469.53;;;22.77;48.29
6393;BME280;3229;42.674;23.282;2022-09-13T07:43:53;94487.00;;;22.76;50.00
6393;BME280;3229;42.674;23.282;2022-09-13T07:46:21;94521.13;;;22.93;49.91
6393;BME280;3229;42.674;23.282;2022-09-13T07:48:51;94482.72;;;22.64;49.70
6393;BME280;3229;42.674;23.282;2022-09-13T07:51:21;94532.63;;;23.04;52.13
6393;BME280;3229;42.674;23.282;2022-09-13T07:53:50;94536.03;;;23.23;49.15
6393;BME280;3229;42.674;23.282;2022-09-13T07:56:19;94544.19;;;23.26;49.25
6393;BME280;3229;42.674;23.282;2022-09-13T07:58:48;94542.63;;;23.25;49.43
6393;BME280;3229;42.674;23.282;2022-09-13T08:01:17;94549.22;;;23.28;49.10
6393;BME280;3229;42.674;23.282;2022-09-13T08:03:50;94548.84;;;23.24;48.51
6393;BME280;3229;42.674;23.282;2022-09-13T08:06:17;94558.94;;;23.21;48.09
6393;BME280;3229;42.674;23.282;2022-09-13T08:08:45;94513.22;;;23.00;48.30
6393;BME280;3229;42.674;23.282;2022-09-13T08:11:16;94531.81;;;23.22;49.93
6393;BME280;3229;42.674;23.282;2022-09-13T08:13:44;94544.97;;;23.45;47.99
6393;BME280;3229;42.674;23.282;2022-09-13T08:16:11;94535.22;;;23.52;48.15
6393;BME280;3229;42.674;23.282;2022-09-13T08:18:42;94511.78;;;23.34;47.48
6393;BME280;3229;42.674;23.282;2022-09-13T08:21:09;94481.25;;;23.23;48.17
6393;BME280;3229;42.674;23.282;2022-09-13T08:23:36;94542.69;;;23.67;48.22
6393;BME280;3229;42.674;23.282;2022-09-13T08:26:04;94506.88;;;23.56;48.89
6393;BME280;3229;42.674;23.282;2022-09-13T08:28:32;94531.84;;;23.82;47.67
6393;BME280;3229;42.674;23.282;2022-09-13T08:31:04;94533.88;;;23.80;45.42
6393;BME280;3229;42.674;23.282;2022-09-13T08:33:31;94530.91;;;23.46;46.42
6393;BME280;3229;42.674;23.282;2022-09-13T08:35:58;94537.50;;;23.49;47.45
6393;BME280;3229;42.674;23.282;2022-09-13T08:38:25;94536.78;;;23.42;45.94
6393;BME280;3229;42.674;23.282;2022-09-13T08:40:54;94508.63;;;23.32;44.20
6393;BME280;3229;42.674;23.282;2022-09-13T08:43:40;94532.50;;;23.47;43.30
6393;BME280;3229;42.674;23.282;2022-09-13T08:46:14;94514.63;;;23.33;43.92
6393;BME280;3229;42.674;23.282;2022-09-13T08:48:45;94532.38;;;23.42;44.25
6393;BME280;3229;42.674;23.282;2022-09-13T08:51:23;94526.97;;;23.25;44.35
6393;BME280;3229;42.674;23.282;2022-09-13T08:53:52;94523.25;;;23.33;45.81
6393;BME280;3229;42.674;23.282;2022-09-13T08:56:22;94525.75;;;23.40;43.74
6393;BME280;3229;42.674;23.282;2022-09-13T08:59:13;94519.19;;;23.37;44.54
6393;BME280;3229;42.674;23.282;2022-09-13T09:01:52;94526.00;;;23.38;41.39
6393;BME280;3229;42.674;23.282;2022-09-13T09:04:41;94520.06;;;23.31;42.47
6393;BME280;3229;42.674;23.282;2022-09-13T09:07:14;94489.56;;;23.13;45.36
6393;BME280;3229;42.674;23.282;2022-09-13T09:09:47;94518.59;;;23.35;45.88
6393;BME280;3229;42.674;23.282;2022-09-13T09:12:24;94525.31;;;23.43;43.39
6393;BME280;3229;42.674;23.282;2022-09-13T09:15:01;94501.53;;;23.21;44.74
6393;BME280;3229;42.674;23.282;2022-09-13T09:17:33;94529.09;;;23.47;44.39
6393;BME280;3229;42.674;23.282;2022-09-13T09:20:10;94517.19;;;23.51;46.01
6393;BME280;3229;42.674;23.282;2022-09-13T09:22:42;94526.28;;;23.60;45.86
6393;BME280;3229;42.674;23.282;2022-09-13T09:25:11;94528.06;;;23.66;42.95
6393;BME280;3229;42.674;23.282;2022-09-13T09:27:38;94485.34;;;23.31;43.07
6393;BME280;3229;42.674;23.282;2022-09-13T09:30:12;94528.06;;;23.48;43.27
6393;BME280;3229;42.674;23.282;2022-09-13T09:32:49;94525.44;;;23.36;43.73
6393;BME280;3229;42.674;23.282;2022-09-13T09:35:28;94508.56;;;23.20;43.52
6393;BME280;3229;42.674;23.282;2022-09-13T09:38:27;94514.28;;;23.29;43.47
6393;BME280;3229;42.674;23.282;2022-09-13T09:40:59;94509.84;;;23.29;43.89
6393;BME280;3229;42.674;23.282;2022-09-13T09:43:32;94490.59;;;23.12;44.57
6393;BME280;3229;42.674;23.282;2022-09-13T09:46:05;94413.97;;;22.58;44.20
6393;BME280;3229;42.674;23.282;2022-09-13T09:48:38;94455.25;;;22.79;43.42
6393;BME280;3229;42.674;23.282;2022-09-13T09:51:07;94505.97;;;23.02;44.40
6393;BME280;3229;42.674;23.282;2022-09-13T09:53:39;94503.22;;;22.97;44.27
6393;BME280;3229;42.674;23.282;2022-09-13T09:56:20;94505.38;;;22.82;44.49
6393;BME280;3229;42.674;23.282;2022-09-13T09:58:49;94503.56;;;22.82;45.36
6393;BME280;3229;42.674;23.282;2022-09-13T10:01:21;94450.34;;;22.53;44.66
6393;BME280;3229;42.674;23.282;2022-09-13T10:06:39;94483.88;;;22.68;46.00
6393;BME280;3229;42.674;23.282;2022-09-13T10:09:14;94353.88;;;21.79;46.21
6393;BME280;3229;42.674;23.282;2022-09-13T10:11:44;94454.25;;;22.44;46.05
6393;BME280;3229;42.674;23.282;2022-09-13T10:14:35;94484.66;;;22.68;45.59
6393;BME280;3229;42.674;23.282;2022-09-13T10:17:15;94420.22;;;22.39;45.58
6393;BME280;3229;42.674;23.282;2022-09-13T10:19:53;94471.25;;;22.83;44.79
6393;BME280;3229;42.674;23.282;2022-09-13T10:22:22;94436.59;;;22.64;44.54
6393;BME280;3229;42.674;23.282;2022-09-13T10:24:49;94475.25;;;22.86;44.45
6393;BME280;3229;42.674;23.282;2022-09-13T10:27:24;94435.94;;;22.69;44.89
6393;BME280;3229;42.674;23.282;2022-09-13T10:29:54;94476.03;;;22.86;44.45
6393;BME280;3229;42.674;23.282;2022-09-13T10:32:25;94398.31;;;22.28;44.06
6393;BME280;3229;42.674;23.282;2022-09-13T10:34:53;94447.81;;;22.65;43.70
6393;BME280;3229;42.674;23.282;2022-09-13T10:37:25;94429.22;;;22.43;44.46
6393;BME280;3229;42.674;23.282;2022-09-13T10:40:00;94463.81;;;22.68;44.52
6393;BME280;3229;42.674;23.282;2022-09-13T10:42:30;94461.72;;;22.59;44.93
6393;BME280;3229;42.674;23.282;2022-09-13T10:44:58;94465.56;;;22.56;45.32
6393;BME280;3229;42.674;23.282;2022-09-13T10:47:31;94449.50;;;22.59;45.30
6393;BME280;3229;42.674;23.282;2022-09-13T10:50:18;94446.78;;;22.66;45.50
6393;BME280;3229;42.674;23.282;2022-09-13T10:52:47;94405.47;;;22.51;45.35
6393;BME280;3229;42.674;23.282;2022-09-13T10:55:27;94434.63;;;22.78;44.36
6393;BME280;3229;42.674;23.282;2022-09-13T10:57:56;94352.88;;;22.24;44.65
6393;BME280;3229;42.674;23.282;2022-09-13T11:00:43;94428.13;;;22.69;43.87
6393;BME280;3229;42.674;23.282;2022-09-13T11:03:25;94365.06;;;22.23;43.50
6393;BME280;3229;42.674;23.282;2022-09-13T11:06:01;94441.41;;;22.79;42.69
6393;BME280;3229;42.674;23.282;2022-09-13T11:08:40;94433.16;;;22.82;43.00
6393;BME280;3229;42.674;23.282;2022-09-13T11:11:18;94437.72;;;22.87;44.10
6393;BME280;3229;42.674;23.282;2022-09-13T11:13:58;94420.78;;;22.77;43.42
6393;BME280;3229;42.674;23.282;2022-09-13T11:16:40;94421.34;;;22.79;42.74
6393;BME280;3229;42.674;23.282;2022-09-13T11:19:28;94284.84;;;21.95;41.96
6393;BME280;3229;42.674;23.282;2022-09-13T11:22:13;94292.88;;;21.94;42.68
6393;BME280;3229;42.674;23.282;2022-09-13T11:25:00;94411.69;;;22.68;41.44
6393;BME280;3229;42.674;23.282;2022-09-13T11:27:36;94342.50;;;22.36;42.58
6393;BME280;3229;42.674;23.282;2022-09-13T11:30:12;94398.72;;;22.80;43.42
6393;BME280;3229;42.674;23.282;2022-09-13T11:33:10;94418.97;;;22.96;42.78
6393;BME280;3229;42.674;23.282;2022-09-13T11:35:52;94411.28;;;23.01;41.72
6393;BME280;3229;42.674;23.282;2022-09-13T11:38:33;94399.63;;;22.86;41.94
6393;BME280;3229;42.674;23.282;2022-09-13T11:41:09;94415.19;;;22.92;43.14
6393;BME280;3229;42.674;23.282;2022-09-13T11:43:58;94345.78;;;22.61;44.16
6393;BME280;3229;42.674;23.282;2022-09-13T11:46:36;94410.03;;;23.04;43.63
6393;BME280;3229;42.674;23.282;2022-09-13T11:52:10;94415.78;;;23.24;43.68
6393;BME280;3229;42.674;23.282;2022-09-13T11:54:52;94418.50;;;23.29;43.28
6393;BME280;3229;42.674;23.282;2022-09-13T11:57:26;94377.38;;;23.01;42.12
6393;BME280;3229;42.674;23.282;2022-09-13T11:59:59;94408.44;;;23.33;42.22
6393;BME280;3229;42.674;23.282;2022-09-13T12:02:35;94342.50;;;22.84;41.28
6393;BME280;3229;42.674;23.282;2022-09-13T12:05:08;94417.94;;;23.27;41.39
6393;BME280;3229;42.674;23.282;2022-09-13T12:07:44;94370.50;;;22.89;42.62
6393;BME280;3229;42.674;23.282;2022-09-13T12:10:17;94413.06;;;23.19;42.35
6393;BME280;3229;42.674;23.282;2022-09-13T12:12:48;94347.00;;;22.77;41.85
6393;BME280;3229;42.674;23.282;2022-09-13T12:15:21;94401.78;;;23.07;40.94
6393;BME280;3229;42.674;23.282;2022-09-13T12:17:51;94410.16;;;23.09;41.02
6393;BME280;3229;42.674;23.282;2022-09-13T12:20:28;94408.69;;;23.13;41.77
6393;BME280;3229;42.674;23.282;2022-09-13T12:23:01;94413.84;;;23.20;42.21
6393;BME280;3229;42.674;23.282;2022-09-13T12:25:35;94406.00;;;23.20;41.47
6393;BME280;3229;42.674;23.282;2022-09-13T12:28:10;94379.22;;;23.13;41.20
6393;BME280;3229;42.674;23.282;2022-09-13T12:30:41;94411.28;;;23.32;39.72
6393;BME280;3229;42.674;23.282;2022-09-13T12:33:13;94406.25;;;23.30;41.44
6393;BME280;3229;42.674;23.282;2022-09-13T12:35:56;94408.06;;;23.29;41.84
6393;BME280;3229;42.674;23.282;2022-09-13T12:38:52;94408.31;;;23.28;42.11
6393;BME280;3229;42.674;23.282;2022-09-13T12:41:35;94407.75;;;23.38;42.00
6393;BME280;3229;42.674;23.282;2022-09-13T12:44:24;94407.44;;;23.46;40.59
6393;BME280;3229;42.674;23.282;2022-09-13T12:47:12;94389.72;;;23.36;41.42
6393;BME280;3229;42.674;23.282;2022-09-13T12:49:52;94411.06;;;23.45;40.45
6393;BME280;3229;42.674;23.282;2022-09-13T12:52:29;94407.88;;;23.43;41.84
6393;BME280;3229;42.674;23.282;2022-09-13T12:58:16;94396.28;;;23.39;41.67
6393;BME280;3229;42.674;23.282;2022-09-13T13:01:01;94414.81;;;23.49;39.91
6393;BME280;3229;42.674;23.282;2022-09-13T13:03:35;94404.34;;;23.37;41.45
6393;BME280;3229;42.674;23.282;2022-09-13T13:06:10;94402.78;;;23.36;41.80
6393;BME280;3229;42.674;23.282;2022-09-13T13:08:49;94404.47;;;23.42;41.89
6393;BME280;3229;42.674;23.282;2022-09-13T13:11:20;94385.97;;;23.32;41.51
6393;BME280;3229;42.674;23.282;2022-09-13T13:13:55;94284.03;;;22.62;42.43
6393;BME280;3229;42.674;23.282;2022-09-13T13:16:28;94351.88;;;23.03;42.39
6393;BME280;3229;42.674;23.282;2022-09-13T13:18:57;94418.19;;;23.38;42.07
6393;BME280;3229;42.674;23.282;2022-09-13T13:21:36;94410.44;;;23.31;41.98
6393;BME280;3229;42.674;23.282;2022-09-13T13:24:40;94415.00;;;23.24;42.35
6393;BME280;3229;42.674;23.282;2022-09-13T13:27:42;94414.19;;;23.23;42.74
6393;BME280;3229;42.674;23.282;2022-09-13T13:30:49;94410.56;;;23.24;42.27
6393;BME280;3229;42.674;23.282;2022-09-13T13:33:19;94402.84;;;23.29;42.12
6393;BME280;3229;42.674;23.282;2022-09-13T13:35:47;94405.22;;;23.31;42.64
6393;BME280;3229;42.674;23.282;2022-09-13T13:38:18;94374.34;;;23.16;43.16
6393;BME280;3229;42.674;23.282;2022-09-13T13:41:05;94417.28;;;23.44;42.93
6393;BME280;3229;42.674;23.282;2022-09-13T13:43:33;94367.44;;;23.10;43.00
6393;BME280;3229;42.674;23.282;2022-09-13T13:46:24;94427.53;;;23.45;43.08
6393;BME280;3229;42.674;23.282;2022-09-13T13:48:52;94427.41;;;23.40;43.68
6393;BME280;3229;42.674;23.282;2022-09-13T13:51:24;94427.72;;;23.32;42.73